Time;durP1;ratioP1;P1;durP2;ratioP2;P2;SDS_P1;SDS_P2;PMS_P1;PMS_P2;Temp;Humidity;BMP_temperature;BMP_pressure;BME280_temperature;BME280_humidity;BME280_pressure;Samples;Min_cycle;Max_cycle;Signal;HPM_P1;HPM_P2
2023/08/12 00:00:41;;;;;;;5.25;2.45;;;;;;;19.59;98.37;101803.91;6093412;19;20031;-76
2023/08/12 00:02:47;;;;;;;8.10;2.83;;;;;;;19.62;98.64;101793.03;6094467;19;20483;-75
2023/08/12 00:05:11;;;;;;;6.50;3.00;;;;;;;19.63;98.75;101788.56;6094390;19;20003;-75
2023/08/12 00:07:21;;;;;;;4.85;2.78;;;;;;;19.64;98.60;101784.91;6089832;19;20041;-74
2023/08/12 00:09:26;;;;;;;12.45;3.63;;;;;;;19.67;98.80;101784.78;6096216;19;20014;-74
2023/08/12 00:11:32;;;;;;;6.55;2.85;;;;;;;19.66;98.88;101781.22;6092384;19;20130;-73
2023/08/12 00:13:40;;;;;;;8.43;2.95;;;;;;;19.66;99.22;101786.56;6060165;19;20016;-75
2023/08/12 00:15:46;;;;;;;7.05;2.90;;;;;;;19.67;98.79;101782.97;6095926;19;20155;-74
2023/08/12 00:17:53;;;;;;;6.78;2.92;;;;;;;19.69;98.73;101783.69;6098183;19;20725;-75
2023/08/12 00:20:01;;;;;;;8.73;3.20;;;;;;;19.71;98.60;101784.47;6091671;19;20014;-70
2023/08/12 00:22:13;;;;;;;5.88;2.92;;;;;;;19.67;98.68;101782.97;6092802;19;20017;-68
2023/08/12 00:24:22;;;;;;;8.10;3.03;;;;;;;19.63;99.12;101778.72;6094591;19;20007;-69
2023/08/12 00:26:28;;;;;;;8.15;3.35;;;;;;;19.61;99.59;101777.97;6091043;19;20119;-69
2023/08/12 00:28:33;;;;;;;5.20;2.70;;;;;;;19.57;99.08;101768.47;6090365;19;20467;-69
2023/08/12 00:30:37;;;;;;;6.68;2.90;;;;;;;19.57;99.59;101773.81;6092541;19;20094;-68
2023/08/12 00:32:42;;;;;;;8.95;3.20;;;;;;;19.65;98.85;101765.31;6091446;19;20232;-69
2023/08/12 00:34:47;;;;;;;7.15;3.60;;;;;;;19.61;98.93;101764.63;6096878;19;20010;-70
2023/08/12 00:36:53;;;;;;;6.70;3.00;;;;;;;19.62;98.68;101769.03;6095552;19;20404;-70
2023/08/12 00:38:58;;;;;;;6.78;2.88;;;;;;;19.60;98.87;101754.94;6094364;19;20024;-69
2023/08/12 00:41:03;;;;;;;7.70;3.45;;;;;;;19.61;98.85;101755.78;6096106;19;20398;-69
2023/08/12 00:43:09;;;;;;;7.50;3.10;;;;;;;19.62;98.98;101761.03;6087203;19;20002;-73
2023/08/12 00:45:14;;;;;;;6.40;2.95;;;;;;;19.61;98.84;101753.13;6093385;19;20011;-74
2023/08/12 00:47:19;;;;;;;8.15;3.28;;;;;;;19.65;98.87;101749.31;6096955;19;20306;-69
2023/08/12 00:49:23;;;;;;;6.78;2.75;;;;;;;19.62;98.77;101747.69;6093863;19;20003;-69
2023/08/12 00:51:29;;;;;;;7.82;3.03;;;;;;;19.63;99.15;101745.88;6090786;19;20022;-69
2023/08/12 00:53:34;;;;;;;6.05;3.20;;;;;;;19.66;98.77;101741.22;6089722;19;20014;-69
2023/08/12 00:55:39;;;;;;;6.15;2.95;;;;;;;19.72;98.18;101745.31;6093803;19;21033;-69
2023/08/12 00:57:47;;;;;;;8.20;3.42;;;;;;;19.64;98.34;101743.13;6096033;19;20035;-69
2023/08/12 00:59:53;;;;;;;6.18;2.80;;;;;;;19.62;99.19;101750.38;6089175;19;20040;-69
2023/08/12 01:02:00;;;;;;;6.05;2.55;;;;;;;19.62;98.95;101744.19;6094069;19;20517;-69
2023/08/12 01:04:06;;;;;;;8.30;2.97;;;;;;;19.58;99.32;101746.16;6092638;19;20010;-69
2023/08/12 01:06:12;;;;;;;7.18;2.92;;;;;;;19.58;99.46;101737.31;6095810;19;20014;-70
2023/08/12 01:08:14;;;;;;;9.50;3.40;;;;;;;19.59;99.58;101729.25;6090577;19;20469;-69
2023/08/12 01:10:20;;;;;;;6.72;3.33;;;;;;;19.56;99.98;101728.56;6092770;19;20002;-69
2023/08/12 01:12:29;;;;;;;7.50;2.90;;;;;;;19.57;100.00;101735.63;6091236;19;20353;-70
2023/08/12 01:14:45;;;;;;;8.30;2.97;;;;;;;19.59;100.00;101739.91;6093289;19;20070;-74
2023/08/12 01:16:54;;;;;;;9.50;3.50;;;;;;;19.56;100.00;101734.75;6087708;19;20446;-75
2023/08/12 01:19:01;;;;;;;7.18;2.80;;;;;;;19.55;100.00;101727.72;6093375;19;20308;-74
2023/08/12 01:21:12;;;;;;;6.45;3.25;;;;;;;19.60;100.00;101730.09;6094694;19;20020;-74
2023/08/12 01:23:20;;;;;;;10.98;3.13;;;;;;;19.56;100.00;101718.75;6090062;19;20035;-73
2023/08/12 01:25:22;;;;;;;8.43;3.22;;;;;;;19.56;100.00;101713.41;6094916;19;20074;-74
2023/08/12 01:27:28;;;;;;;9.90;3.83;;;;;;;19.59;100.00;101718.56;6088677;19;20038;-69
2023/08/12 01:29:34;;;;;;;8.55;3.08;;;;;;;19.59;100.00;101713.25;6090375;19;20165;-69
2023/08/12 01:31:44;;;;;;;11.00;3.47;;;;;;;19.58;100.00;101711.50;6095893;19;20549;-71
2023/08/12 01:33:58;;;;;;;9.20;3.28;;;;;;;19.62;100.00;101715.69;6084910;19;20015;-71
2023/08/12 01:36:10;;;;;;;8.63;3.47;;;;;;;19.63;100.00;101709.41;6089907;19;20007;-70
2023/08/12 01:38:13;;;;;;;10.68;3.85;;;;;;;19.61;100.00;101707.78;6093740;19;20477;-70
2023/08/12 01:40:22;;;;;;;9.48;3.58;;;;;;;19.56;100.00;101713.41;6089571;19;20011;-69
2023/08/12 01:42:30;;;;;;;8.68;4.18;;;;;;;19.54;100.00;101704.69;6093216;19;20010;-70
2023/08/12 01:44:35;;;;;;;8.60;4.20;;;;;;;19.56;100.00;101701.91;6093183;19;20034;-70
2023/08/12 01:46:40;;;;;;;12.18;4.63;;;;;;;19.55;100.00;101698.38;6092838;19;20011;-70
2023/08/12 01:48:43;;;;;;;10.10;4.65;;;;;;;19.53;100.00;101695.81;6091661;19;20344;-71
2023/08/12 01:50:48;;;;;;;9.13;4.65;;;;;;;19.49;100.00;101699.63;6095032;19;20633;-70
2023/08/12 01:52:53;;;;;;;9.02;3.95;;;;;;;19.51;100.00;101699.56;6087969;19;20411;-69
2023/08/12 01:54:58;;;;;;;10.23;4.47;;;;;;;19.57;100.00;101695.63;6093720;19;20034;-69
2023/08/12 01:57:08;;;;;;;12.95;5.07;;;;;;;19.53;100.00;101692.28;6094462;19;20784;-74
2023/08/12 01:59:13;;;;;;;9.10;4.43;;;;;;;19.59;100.00;101686.59;6092728;19;20774;-73
2023/08/12 02:01:20;;;;;;;8.32;4.40;;;;;;;19.62;100.00;101685.53;6090730;19;20014;-73
2023/08/12 02:03:25;;;;;;;7.53;3.85;;;;;;;19.62;100.00;101685.53;6095269;19;20566;-69
2023/08/12 02:05:30;;;;;;;10.07;4.63;;;;;;;19.64;100.00;101681.81;6092010;19;20719;-69
2023/08/12 02:07:35;;;;;;;13.45;4.47;;;;;;;19.57;100.00;101683.16;6092295;19;20010;-70
2023/08/12 02:09:40;;;;;;;9.35;4.25;;;;;;;19.56;100.00;101670.75;6092196;19;20502;-70
2023/08/12 02:11:46;;;;;;;9.20;4.32;;;;;;;19.57;100.00;101672.47;6096793;19;20465;-69
2023/08/12 02:13:55;;;;;;;13.13;5.50;;;;;;;19.60;100.00;101672.28;6092900;19;20522;-69
2023/08/12 02:16:00;;;;;;;12.73;4.10;;;;;;;19.61;100.00;101673.97;6093891;19;20428;-69
2023/08/12 02:18:06;;;;;;;11.68;4.32;;;;;;;19.65;100.00;101674.66;6093563;19;20006;-69
2023/08/12 02:20:13;;;;;;;9.43;4.07;;;;;;;19.66;100.00;101671.03;6094122;19;20350;-69
2023/08/12 02:22:18;;;;;;;8.95;4.60;;;;;;;19.65;100.00;101672.84;6090819;19;20018;-74
2023/08/12 02:24:23;;;;;;;11.07;4.60;;;;;;;19.71;100.00;101666.28;6089790;19;20007;-74
2023/08/12 02:26:28;;;;;;;13.05;4.57;;;;;;;19.70;100.00;101664.56;6091812;19;20039;-74
2023/08/12 02:28:34;;;;;;;8.90;4.85;;;;;;;19.68;100.00;101678.00;6091480;19;20022;-73
2023/08/12 02:30:41;;;;;;;9.65;4.55;;;;;;;19.65;100.00;101666.66;6095457;19;20019;-74
2023/08/12 02:32:47;;;;;;;7.47;4.25;;;;;;;19.65;100.00;101661.31;6091631;19;20102;-73
2023/08/12 02:34:53;;;;;;;12.23;5.25;;;;;;;19.57;100.00;101664.50;6095108;19;20078;-73
2023/08/12 02:36:58;;;;;;;12.63;5.45;;;;;;;19.51;100.00;101662.22;6093438;19;20011;-73
2023/08/12 02:39:04;;;;;;;12.02;5.45;;;;;;;19.46;100.00;101665.19;6092033;19;20030;-73
2023/08/12 02:41:09;;;;;;;10.20;5.00;;;;;;;19.43;100.00;101662.72;6091662;19;20015;-72
2023/08/12 02:43:14;;;;;;;9.65;4.88;;;;;;;19.40;100.00;101668.22;6091654;19;20102;-73
2023/08/12 02:45:19;;;;;;;13.13;5.30;;;;;;;19.39;100.00;101653.19;6094325;19;20393;-73
2023/08/12 02:47:25;;;;;;;11.35;4.97;;;;;;;19.47;100.00;101650.03;6086852;19;20002;-73
2023/08/12 02:49:30;;;;;;;9.10;4.60;;;;;;;19.44;100.00;101639.59;6086473;19;20057;-73
2023/08/12 02:51:35;;;;;;;11.95;5.78;;;;;;;19.46;100.00;101648.34;6085655;19;20075;-74
2023/08/12 02:53:40;;;;;;;12.05;5.63;;;;;;;19.45;100.00;101647.47;6085666;19;20757;-73
2023/08/12 02:55:47;;;;;;;11.35;4.82;;;;;;;19.43;100.00;101648.50;6085600;19;20003;-72
2023/08/12 02:57:52;;;;;;;11.93;5.10;;;;;;;19.43;100.00;101643.19;6092499;19;20010;-72
2023/08/12 03:00:01;;;;;;;11.18;5.22;;;;;;;19.41;100.00;101645.13;6090408;19;20030;-72
2023/08/12 03:02:09;;;;;;;12.57;5.40;;;;;;;19.40;100.00;101643.38;6088714;19;20006;-73
2023/08/12 03:04:16;;;;;;;12.38;5.40;;;;;;;19.39;100.00;101641.69;6103742;19;20013;-73
2023/08/12 03:06:21;;;;;;;11.00;5.10;;;;;;;19.44;100.00;101639.59;6094073;19;20353;-73
2023/08/12 03:08:26;;;;;;;12.45;5.32;;;;;;;19.48;100.00;101631.28;6089377;19;20026;-70
2023/08/12 03:10:35;;;;;;;12.10;6.00;;;;;;;19.48;100.00;101633.97;6098867;19;20035;-73
2023/08/12 03:12:40;;;;;;;13.60;5.97;;;;;;;19.42;100.00;101633.50;6089279;19;20013;-71
2023/08/12 03:14:43;;;;;;;15.88;6.22;;;;;;;19.44;100.00;101624.44;6098247;19;20478;-71
2023/08/12 03:16:48;;;;;;;14.40;7.20;;;;;;;19.42;100.00;101615.69;6094115;19;20678;-72
2023/08/12 03:18:53;;;;;;;12.85;6.72;;;;;;;19.42;100.00;101609.50;6096716;19;20026;-73
2023/08/12 03:20:58;;;;;;;13.10;6.30;;;;;;;19.43;100.00;101613.88;6100376;19;20447;-72
2023/08/12 03:23:03;;;;;;;15.18;7.00;;;;;;;19.43;100.00;101608.53;6096708;19;20021;-72
2023/08/12 03:25:09;;;;;;;12.48;7.18;;;;;;;19.41;100.00;101605.13;6095696;19;20011;-71
2023/08/12 03:27:14;;;;;;;15.95;7.45;;;;;;;19.41;100.00;101603.31;6093676;19;20082;-72
2023/08/12 03:29:19;;;;;;;14.20;6.60;;;;;;;19.40;100.00;101609.59;6097632;19;20006;-73
2023/08/12 03:31:21;;;;;;;15.88;6.90;;;;;;;19.38;100.00;101614.19;6094858;19;20006;-74
2023/08/12 03:33:29;;;;;;;13.35;6.63;;;;;;;19.43;100.00;101614.75;6091124;19;20014;-73
2023/08/12 03:35:31;;;;;;;15.45;7.40;;;;;;;19.41;100.00;101607.81;6102674;19;20399;-71
2023/08/12 03:37:39;;;;;;;14.23;6.68;;;;;;;19.38;100.00;101608.84;6101612;19;20451;-72
2023/08/12 03:39:43;;;;;;;16.50;8.80;;;;;;;19.36;100.00;101602.75;6103812;19;20033;-71
2023/08/12 03:41:50;;;;;;;14.85;7.07;;;;;;;19.35;100.00;101609.03;6105338;19;20536;-71
2023/08/12 03:43:56;;;;;;;14.43;7.20;;;;;;;19.33;100.00;101607.44;6103583;19;20027;-70
2023/08/12 03:46:00;;;;;;;15.65;8.57;;;;;;;19.29;100.00;101607.63;6102939;19;20914;-73
2023/08/12 03:48:07;;;;;;;16.25;7.97;;;;;;;19.32;100.00;101609.22;6101376;19;20276;-73
2023/08/12 03:50:10;;;;;;;15.68;8.30;;;;;;;19.25;100.00;101589.28;6095994;19;20097;-74
2023/08/12 03:52:15;;;;;;;15.50;7.03;;;;;;;19.28;100.00;101595.28;6099798;19;20758;-72
2023/08/12 03:54:23;;;;;;;17.13;7.05;;;;;;;19.30;100.00;101584.53;6072929;19;20002;-72
2023/08/12 03:56:31;;;;;;;15.68;7.45;;;;;;;19.36;100.00;101586.78;6103848;19;20017;-72
2023/08/12 03:58:36;;;;;;;15.57;8.70;;;;;;;19.34;100.00;101583.34;6101669;19;20384;-72
2023/08/12 04:00:44;;;;;;;16.38;8.30;;;;;;;19.27;100.00;101577.59;6078415;19;20014;-72
2023/08/12 04:02:51;;;;;;;17.73;7.95;;;;;;;19.28;100.00;101581.09;6102226;19;20020;-71
2023/08/12 04:04:56;;;;;;;16.50;7.90;;;;;;;19.24;100.00;101575.09;6102192;19;20030;-71
2023/08/12 04:07:01;;;;;;;15.65;7.55;;;;;;;19.25;100.00;101566.16;6104281;19;20491;-71
2023/08/12 04:09:08;;;;;;;14.23;7.43;;;;;;;19.25;100.00;101555.50;6064224;19;20006;-71
2023/08/12 04:11:15;;;;;;;17.52;8.43;;;;;;;19.24;100.00;101551.09;6101542;19;20010;-72
2023/08/12 04:13:25;;;;;;;15.73;7.75;;;;;;;19.32;100.00;101560.41;6100935;19;20006;-73
2023/08/12 04:15:30;;;;;;;18.63;8.25;;;;;;;19.35;100.00;101553.06;6101672;19;20478;-75
2023/08/12 04:17:40;;;;;;;13.60;7.10;;;;;;;19.30;100.00;101549.88;6103691;19;20094;-74
2023/08/12 04:20:02;;;;;;;20.23;8.02;;;;;;;19.20;100.00;101546.94;6100706;19;20272;-75
2023/08/12 04:22:24;;;;;;;15.43;7.40;;;;;;;19.23;100.00;101536.09;6102011;19;20051;-73
2023/08/12 04:24:29;;;;;;;15.30;8.65;;;;;;;19.31;100.00;101548.91;6103207;19;20007;-73
2023/08/12 04:26:36;;;;;;;13.65;7.18;;;;;;;19.32;100.00;101549.75;6094901;19;20393;-73
2023/08/12 04:28:41;;;;;;;15.45;7.80;;;;;;;19.25;100.00;101542.19;6099561;19;20491;-73
2023/08/12 04:30:52;;;;;;;15.88;8.63;;;;;;;19.28;100.00;101551.78;6098927;19;20055;-73
2023/08/12 04:32:57;;;;;;;12.70;7.20;;;;;;;19.25;100.00;101546.66;6096623;19;20043;-74
2023/08/12 04:35:04;;;;;;;13.10;7.53;;;;;;;19.27;100.00;101542.94;6100773;19;20002;-74
2023/08/12 04:37:10;;;;;;;15.40;8.63;;;;;;;19.24;100.00;101536.94;6102582;19;20035;-73
2023/08/12 04:39:18;;;;;;;19.92;9.13;;;;;;;19.25;100.00;101538.66;6102726;19;20003;-73
2023/08/12 04:41:23;;;;;;;15.65;7.18;;;;;;;19.24;100.00;101534.28;6103482;19;20480;-71
2023/08/12 04:43:34;;;;;;;15.18;8.70;;;;;;;19.25;100.00;101531.53;6092338;19;20414;-71
2023/08/12 04:45:40;;;;;;;21.15;9.43;;;;;;;19.32;100.00;101534.63;6081485;19;20007;-71
2023/08/12 04:47:46;;;;;;;16.83;8.85;;;;;;;19.32;100.00;101533.78;6100550;19;20002;-69
2023/08/12 04:49:55;;;;;;;14.70;7.57;;;;;;;19.38;100.00;101533.34;6101032;19;20018;-70
2023/08/12 04:52:01;;;;;;;18.50;9.73;;;;;;;19.32;100.00;101533.78;6099373;19;20027;-69
2023/08/12 04:54:05;;;;;;;16.92;8.48;;;;;;;19.33;100.00;101527.50;6097763;19;20039;-70
2023/08/12 04:56:10;;;;;;;18.33;8.30;;;;;;;19.34;100.00;101521.19;6100787;19;20006;-70
2023/08/12 04:58:18;;;;;;;14.88;8.60;;;;;;;19.33;100.00;101514.19;6103360;19;20090;-69
2023/08/12 05:00:26;;;;;;;18.60;8.73;;;;;;;19.34;100.00;101518.53;6095579;19;20432;-70
2023/08/12 05:02:38;;;;;;;18.20;9.70;;;;;;;19.41;100.00;101517.19;6099370;19;20010;-70
2023/08/12 05:04:54;;;;;;;18.92;9.95;;;;;;;19.42;100.00;101516.22;6096954;19;20524;-71
2023/08/12 05:07:00;;;;;;;21.60;9.35;;;;;;;19.40;100.00;101512.78;6101132;19;20002;-73
2023/08/12 05:09:10;;;;;;;20.83;9.80;;;;;;;19.38;100.00;101520.91;6099868;19;20403;-72
2023/08/12 05:11:22;;;;;;;22.40;11.32;;;;;;;19.38;100.00;101522.69;6097175;19;20102;-72
2023/08/12 05:13:28;;;;;;;21.90;9.32;;;;;;;19.33;100.00;101535.50;6098070;19;20038;-74
2023/08/12 05:15:36;;;;;;;20.60;10.20;;;;;;;19.27;100.00;101531.41;6099758;19;20125;-74
2023/08/12 05:17:46;;;;;;;22.90;10.45;;;;;;;19.24;100.00;101535.13;6100990;19;20118;-73
2023/08/12 05:19:52;;;;;;;20.05;10.30;;;;;;;19.20;100.00;101532.78;6101739;19;20479;-72
2023/08/12 05:21:57;;;;;;;21.40;9.20;;;;;;;19.19;100.00;101529.25;6100243;19;20024;-71
2023/08/12 05:24:02;;;;;;;19.33;10.02;;;;;;;19.17;100.00;101535.63;6103277;19;20504;-72
2023/08/12 05:26:08;;;;;;;22.15;10.13;;;;;;;19.20;100.00;101538.13;6101887;19;20031;-72
2023/08/12 05:28:13;;;;;;;23.58;10.70;;;;;;;19.10;100.00;101529.84;6101878;19;20007;-73
2023/08/12 05:30:23;;;;;;;19.65;9.90;;;;;;;19.06;100.00;101528.34;6100589;19;20024;-71
2023/08/12 05:32:30;;;;;;;21.70;10.93;;;;;;;19.11;100.00;101531.56;6095328;19;20593;-70
2023/08/12 05:34:45;;;;;;;19.90;9.68;;;;;;;19.05;100.00;101526.63;6098243;19;20009;-72
2023/08/12 05:36:53;;;;;;;20.80;10.70;;;;;;;19.03;100.00;101525.88;6100701;19;20014;-74
2023/08/12 05:39:01;;;;;;;19.85;9.80;;;;;;;19.00;100.00;101528.75;6101057;19;19999;-72
2023/08/12 05:41:07;;;;;;;18.92;10.13;;;;;;;19.04;100.00;101533.78;6100465;19;20360;-73
2023/08/12 05:43:12;;;;;;;18.48;10.95;;;;;;;19.05;100.00;101531.97;6096245;19;20548;-71
2023/08/12 05:45:17;;;;;;;21.67;10.60;;;;;;;19.00;100.00;101528.75;6093467;19;20017;-73
2023/08/12 05:47:22;;;;;;;21.65;9.95;;;;;;;18.98;100.00;101523.50;6101466;19;20016;-71
2023/08/12 05:49:32;;;;;;;20.08;9.52;;;;;;;18.97;100.00;101520.97;6099186;19;20471;-71
2023/08/12 05:51:41;;;;;;;17.60;9.27;;;;;;;18.95;100.00;101523.72;6099929;19;20010;-71
2023/08/12 05:53:50;;;;;;;18.05;8.35;;;;;;;18.93;100.00;101514.09;6092963;19;20460;-70
2023/08/12 05:55:59;;;;;;;16.23;7.82;;;;;;;18.94;100.00;101518.50;6097171;19;20117;-71
2023/08/12 05:58:04;;;;;;;17.20;7.65;;;;;;;18.92;100.00;101518.59;6103526;19;20006;-70
2023/08/12 06:00:10;;;;;;;13.02;6.72;;;;;;;18.96;100.00;101516.59;6096749;19;20109;-70
2023/08/12 06:02:30;;;;;;;13.32;6.80;;;;;;;18.97;100.00;101513.81;6098756;19;20018;-72
2023/08/12 06:04:37;;;;;;;13.57;7.22;;;;;;;18.99;100.00;101511.06;6101718;19;20574;-70
2023/08/12 06:06:58;;;;;;;13.60;6.60;;;;;;;18.97;100.00;101515.63;6100883;19;20615;-69
2023/08/12 06:09:05;;;;;;;12.65;6.03;;;;;;;18.97;100.00;101512.97;6062703;19;20792;-70
2023/08/12 06:11:10;;;;;;;13.65;6.85;;;;;;;18.99;100.00;101517.25;6098784;19;20039;-70
2023/08/12 06:13:16;;;;;;;12.73;5.03;;;;;;;18.99;100.00;101521.72;6096333;19;20436;-70
2023/08/12 06:15:25;;;;;;;11.20;5.93;;;;;;;18.95;100.00;101521.03;6099804;19;20029;-69
2023/08/12 06:17:30;;;;;;;10.05;4.90;;;;;;;19.00;100.00;101520.75;6098854;19;20018;-70
2023/08/12 06:19:40;;;;;;;9.13;4.40;;;;;;;18.99;100.00;101517.25;6099139;19;20153;-70
2023/08/12 06:21:47;;;;;;;9.18;4.43;;;;;;;19.04;100.00;101516.94;6078910;19;20006;-69
2023/08/12 06:24:02;;;;;;;9.40;4.53;;;;;;;19.02;100.00;101518.84;6094232;19;20864;-68
2023/08/12 06:26:12;;;;;;;8.00;3.67;;;;;;;19.04;100.00;101519.63;6098645;19;20034;-69
2023/08/12 06:28:19;;;;;;;11.35;4.70;;;;;;;19.03;100.00;101515.22;6101094;19;20013;-70
2023/08/12 06:30:24;;;;;;;9.45;4.55;;;;;;;19.02;100.00;101516.19;6100463;19;20497;-70
2023/08/12 06:32:39;;;;;;;8.18;4.13;;;;;;;19.03;100.00;101513.41;6095921;19;20011;-70
2023/08/12 06:34:47;;;;;;;7.28;3.35;;;;;;;19.08;100.00;101516.63;6099858;19;20006;-71
2023/08/12 06:36:52;;;;;;;6.82;3.90;;;;;;;19.00;100.00;101507.44;6093949;19;20320;-70
2023/08/12 06:38:57;;;;;;;8.23;4.18;;;;;;;19.06;100.00;101504.34;6098614;19;20010;-69
2023/08/12 06:41:03;;;;;;;7.88;3.70;;;;;;;19.07;100.00;101500.75;6095405;19;20017;-72
2023/08/12 06:43:09;;;;;;;8.20;4.60;;;;;;;19.03;100.00;101502.75;6096842;19;20490;-74
2023/08/12 06:45:14;;;;;;;6.43;3.47;;;;;;;19.04;100.00;101507.13;6097249;19;20010;-71
2023/08/12 06:47:16;;;;;;;9.02;3.42;;;;;;;19.08;100.00;101513.13;6096267;19;20504;-73
2023/08/12 06:49:23;;;;;;;8.57;3.90;;;;;;;19.05;100.00;101510.66;6099699;19;20114;-72
2023/08/12 06:51:30;;;;;;;6.75;3.42;;;;;;;19.04;100.00;101507.13;6094855;19;20573;-73
2023/08/12 06:53:38;;;;;;;8.20;3.78;;;;;;;19.06;100.00;101513.22;6092558;19;20042;-72
2023/08/12 06:55:47;;;;;;;8.40;3.78;;;;;;;19.08;100.00;101513.13;6100351;19;20026;-72
2023/08/12 06:57:54;;;;;;;9.63;3.85;;;;;;;19.07;100.00;101514.09;6097209;19;20014;-73
2023/08/12 06:59:56;;;;;;;7.22;3.55;;;;;;;19.06;100.00;101518.56;6097927;19;20015;-73
2023/08/12 07:02:04;;;;;;;6.05;3.30;;;;;;;19.06;100.00;101513.22;6098526;19;20525;-72
2023/08/12 07:04:09;;;;;;;7.05;3.50;;;;;;;19.03;100.00;101517.88;6098331;19;20003;-72
2023/08/12 07:06:14;;;;;;;5.78;3.50;;;;;;;19.03;100.00;101512.56;6095376;19;20011;-73
2023/08/12 07:08:22;;;;;;;4.68;2.42;;;;;;;19.06;100.00;101525.66;6094120;19;20775;-73
2023/08/12 07:10:27;;;;;;;5.45;2.80;;;;;;;18.99;100.00;101548.34;6092447;19;20535;-74
2023/08/12 07:12:33;;;;;;;5.78;2.17;;;;;;;17.91;100.00;101549.69;6096200;19;20013;-73
2023/08/12 07:14:38;;;;;;;5.47;2.15;;;;;;;17.65;100.00;101545.03;6097795;19;20010;-74
2023/08/12 07:16:43;;;;;;;5.93;2.70;;;;;;;17.57;100.00;101556.13;6099963;19;20006;-74
2023/08/12 07:18:48;;;;;;;5.70;2.15;;;;;;;17.47;100.00;101549.63;6097781;19;20474;-74
2023/08/12 07:20:53;;;;;;;6.82;2.13;;;;;;;17.31;100.00;101549.66;6100265;19;20042;-74
2023/08/12 07:22:58;;;;;;;4.70;1.75;;;;;;;17.32;100.00;101559.31;6097480;19;20006;-71
2023/08/12 07:25:16;;;;;;;5.95;1.90;;;;;;;17.26;100.00;101557.03;6093500;19;20082;-71
2023/08/12 07:27:23;;;;;;;5.20;2.22;;;;;;;17.19;100.00;101543.22;6066129;19;20040;-71
2023/08/12 07:29:45;;;;;;;5.40;1.95;;;;;;;17.22;100.00;101552.81;6065239;19;20016;-70
2023/08/12 07:32:20;;;;;;;5.72;2.47;;;;;;;17.20;100.00;101541.44;6062137;19;20015;-70
2023/08/12 07:34:41;;;;;;;5.97;2.00;;;;;;;17.26;100.00;101544.59;6090381;19;20014;-71
2023/08/12 07:39:29;;;;;;;4.22;1.80;;;;;;;17.07;100.00;101536.81;6094964;19;20328;-74
2023/08/12 07:41:37;;;;;;;5.40;2.20;;;;;;;16.98;100.00;101537.34;6096693;19;20393;-69
2023/08/12 07:43:44;;;;;;;4.93;1.98;;;;;;;17.15;100.00;101541.69;6094595;19;20012;-69
2023/08/12 07:46:04;;;;;;;5.57;1.77;;;;;;;17.27;100.00;101551.63;6102408;19;20105;-70
2023/08/12 07:48:14;;;;;;;4.43;1.83;;;;;;;17.34;100.00;101560.94;6100222;19;20002;-69
2023/08/12 07:50:19;;;;;;;6.47;2.25;;;;;;;17.28;100.00;101566.63;6095727;19;20036;-69
2023/08/12 07:52:29;;;;;;;6.45;2.17;;;;;;;17.20;100.00;101578.63;6096624;19;20144;-69
2023/08/12 07:54:31;;;;;;;4.40;1.77;;;;;;;17.28;100.00;101576.41;6099906;19;20014;-74
2023/08/12 07:56:44;;;;;;;5.07;2.05;;;;;;;17.44;100.00;101577.22;6103712;19;20054;-74
2023/08/12 07:58:53;;;;;;;6.93;2.15;;;;;;;17.31;100.00;101570.91;6099331;19;20035;-74
2023/08/12 08:01:01;;;;;;;7.13;2.83;;;;;;;17.36;100.00;101579.47;6101235;19;20007;-73
2023/08/12 08:03:08;;;;;;;8.63;2.60;;;;;;;17.33;100.00;101569.88;6103142;19;20018;-74
2023/08/12 08:05:13;;;;;;;4.28;2.22;;;;;;;17.32;100.00;101572.59;6099656;19;20474;-74
2023/08/12 08:09:39;;;;;;;6.20;1.95;;;;;;;17.33;100.00;101564.56;6094488;19;20482;-74
2023/08/12 08:11:53;;;;;;;4.57;2.33;;;;;;;17.49;100.00;101558.38;6097421;19;20511;-74
2023/08/12 08:14:01;;;;;;;6.07;2.35;;;;;;;17.35;100.00;101559.13;6103388;19;20014;-76
2023/08/12 08:16:11;;;;;;;6.63;2.22;;;;;;;17.40;100.00;101543.78;6103577;19;20025;-75
2023/08/12 08:18:17;;;;;;;5.03;2.50;;;;;;;17.54;100.00;101559.81;6100508;19;20011;-75
2023/08/12 08:20:22;;;;;;;7.40;2.78;;;;;;;17.82;100.00;101565.31;6101704;19;20372;-73
2023/08/12 08:22:27;;;;;;;6.43;2.00;;;;;;;17.76;100.00;101559.38;6103552;19;20010;-73
2023/08/12 08:24:37;;;;;;;4.35;2.10;;;;;;;17.92;100.00;101570.00;6100215;19;20003;-74
2023/08/12 08:26:45;;;;;;;7.05;2.72;;;;;;;18.11;100.00;101572.41;6100516;19;20030;-74
2023/08/12 08:28:53;;;;;;;7.28;2.35;;;;;;;18.08;100.00;101579.72;6103890;19;20011;-75
2023/08/12 08:30:58;;;;;;;7.40;2.30;;;;;;;18.29;100.00;101572.25;6102082;19;20391;-75
2023/08/12 08:33:08;;;;;;;7.85;2.88;;;;;;;18.57;100.00;101571.41;6096843;19;20101;-74
2023/08/12 08:35:14;;;;;;;5.13;2.53;;;;;;;18.63;100.00;101565.69;6094942;19;20003;-72
2023/08/12 08:37:24;;;;;;;7.22;2.75;;;;;;;18.70;100.00;101553.69;6102461;19;20451;-70
2023/08/12 08:39:27;;;;;;;7.45;2.60;;;;;;;18.71;100.00;101560.72;6097409;19;20544;-71
2023/08/12 08:41:36;;;;;;;6.93;2.40;;;;;;;18.88;100.00;101553.50;6103758;19;20018;-70
2023/08/12 08:43:46;;;;;;;5.90;2.47;;;;;;;18.99;100.00;101553.69;6096473;19;20082;-70
2023/08/12 08:45:55;;;;;;;5.82;2.55;;;;;;;18.89;100.00;101545.41;6093051;19;20011;-70
2023/08/12 08:50:28;;;;;;;5.35;2.55;;;;;;;19.30;100.00;101553.38;6099562;19;20467;-70
2023/08/12 08:52:37;;;;;;;6.05;2.70;;;;;;;19.52;100.00;101546.63;6098762;19;20019;-71
2023/08/12 08:54:42;;;;;;;8.43;2.90;;;;;;;19.78;100.00;101544.91;6096204;19;20095;-71
2023/08/12 08:56:52;;;;;;;5.60;2.63;;;;;;;20.46;100.00;101543.75;6094283;19;20002;-70
2023/08/12 08:59:03;;;;;;;9.48;2.97;;;;;;;21.10;100.00;101561.44;6107104;19;20013;-69
2023/08/12 09:01:18;;;;;;;6.88;3.22;;;;;;;21.17;100.00;101560.00;6106044;19;20039;-71
2023/08/12 09:03:26;;;;;;;6.75;2.50;;;;;;;21.14;99.25;101555.75;6105062;19;20035;-69
2023/08/12 09:05:34;;;;;;;7.80;2.90;;;;;;;20.97;98.77;101551.66;6098221;19;20038;-70
2023/08/12 09:07:47;;;;;;;8.00;3.20;;;;;;;20.58;98.00;101558.91;6101725;19;20467;-69
2023/08/12 09:09:55;;;;;;;13.18;3.33;;;;;;;21.38;96.82;101563.81;6102768;19;20342;-70
2023/08/12 09:12:00;;;;;;;6.78;2.33;;;;;;;21.51;93.04;101555.72;6072796;19;20014;-68
2023/08/12 09:14:05;;;;;;;6.80;2.20;;;;;;;21.69;93.33;101565.00;6107274;19;20016;-69
2023/08/12 09:16:46;;;;;;;6.78;2.70;;;;;;;21.94;91.28;101565.84;6105762;19;20013;-69
2023/08/12 09:18:58;;;;;;;7.20;2.55;;;;;;;22.18;91.94;101573.78;6107283;19;20010;-69
2023/08/12 09:21:03;;;;;;;8.25;2.70;;;;;;;21.38;91.10;101574.50;6106517;19;20030;-72
2023/08/12 09:23:11;;;;;;;7.25;2.25;;;;;;;21.40;93.77;101566.38;6089526;19;20011;-72
2023/08/12 09:25:15;;;;;;;4.90;2.53;;;;;;;21.43;90.63;101588.41;6104398;19;20011;-70
2023/08/12 09:27:21;;;;;;;5.97;2.25;;;;;;;21.41;86.84;101597.50;6099749;19;20024;-72
2023/08/12 09:29:26;;;;;;;3.67;2.05;;;;;;;21.77;85.15;101585.84;6106275;19;20042;-70
2023/08/12 09:31:34;;;;;;;5.63;2.30;;;;;;;21.85;80.15;101593.28;6102852;19;20511;-70
2023/08/12 09:33:42;;;;;;;4.95;2.65;;;;;;;22.52;78.22;101588.09;6103857;19;20142;-72
2023/08/12 09:35:47;;;;;;;7.50;2.00;;;;;;;22.14;73.23;101599.06;6105204;19;20019;-74
2023/08/12 09:37:49;;;;;;;7.60;2.40;;;;;;;21.96;75.20;101595.13;6100091;19;20649;-74
2023/08/12 09:39:57;;;;;;;7.30;2.03;;;;;;;22.42;75.80;101591.59;6096301;19;20034;-75
2023/08/12 09:42:02;;;;;;;5.82;1.80;;;;;;;22.70;74.31;101591.13;6079376;19;20046;-73
2023/08/12 09:44:11;;;;;;;5.85;2.03;;;;;;;21.80;76.30;101599.00;6106694;19;20392;-74
2023/08/12 09:46:26;;;;;;;7.15;2.10;;;;;;;21.82;77.21;101597.03;6106880;19;20006;-74
2023/08/12 09:48:33;;;;;;;7.35;2.10;;;;;;;21.50;79.33;101612.00;6104846;19;20018;-75
2023/08/12 09:50:42;;;;;;;4.93;1.80;;;;;;;21.56;78.77;101607.03;6105234;19;20010;-75